createdAt,value
2022-09-29T00:01:06.717Z,99838.72
2022-09-29T00:03:33.790Z,99828.31
2022-09-29T00:06:00.792Z,99831.72
2022-09-29T00:08:30.017Z,99831.78
2022-09-29T00:10:57.575Z,99830.84
2022-09-29T00:13:24.625Z,99838.78
2022-09-29T00:16:00.500Z,99840.00
2022-09-29T00:18:28.176Z,99837.50
2022-09-29T00:21:06.051Z,99833.47
2022-09-29T00:23:35.334Z,99834.16
2022-09-29T00:26:22.396Z,99830.44
2022-09-29T00:28:56.991Z,99831.50
2022-09-29T00:31:27.479Z,99826.22
2022-09-29T00:33:54.487Z,99830.72
2022-09-29T00:36:22.751Z,99836.72
2022-09-29T00:38:52.744Z,99826.25
2022-09-29T00:41:27.512Z,99822.72
2022-09-29T00:44:04.337Z,99817.56
2022-09-29T00:46:55.050Z,99818.84
2022-09-29T00:49:45.979Z,99826.28
2022-09-29T00:52:28.244Z,99826.72
2022-09-29T00:55:13.185Z,99824.16
2022-09-29T00:57:50.463Z,99832.56
2022-09-29T01:00:17.950Z,99828.44
2022-09-29T01:02:54.288Z,99821.19
2022-09-29T01:05:29.065Z,99819.69
2022-09-29T01:07:56.147Z,99828.06
2022-09-29T01:10:23.819Z,99822.53
2022-09-29T01:12:51.057Z,99812.38
2022-09-29T01:15:20.581Z,99821.69
2022-09-29T01:17:48.906Z,99821.19
2022-09-29T01:20:19.032Z,99817.66
2022-09-29T01:23:10.722Z,99820.44
2022-09-29T01:26:37.291Z,99816.66
2022-09-29T01:29:49.027Z,99820.28
2022-09-29T01:32:35.099Z,99817.22
2022-09-29T01:35:27.184Z,99810.00
2022-09-29T01:38:19.818Z,99812.19
2022-09-29T01:41:08.187Z,99801.97
2022-09-29T01:43:42.978Z,99809.13
2022-09-29T01:46:31.118Z,99811.66
2022-09-29T01:49:01.315Z,99812.13
2022-09-29T01:51:50.359Z,99812.94
2022-09-29T01:54:25.815Z,99813.72
2022-09-29T01:57:02.380Z,99812.50
2022-09-29T01:59:56.690Z,99812.69
2022-09-29T02:02:38.900Z,99816.28
2022-09-29T02:05:17.147Z,99819.75
2022-09-29T02:07:46.743Z,99815.69
2022-09-29T02:10:30.075Z,99807.31
2022-09-29T02:13:00.156Z,99814.38
2022-09-29T02:15:33.141Z,99817.22
2022-09-29T02:18:07.742Z,99821.88
2022-09-29T02:20:34.721Z,99813.81
2022-09-29T02:23:01.804Z,99814.91
2022-09-29T02:25:29.119Z,99810.38
2022-09-29T02:27:56.159Z,99814.53
2022-09-29T02:30:23.080Z,99813.72
2022-09-29T02:32:50.082Z,99819.97
2022-09-29T02:35:17.664Z,99810.38
2022-09-29T02:38:06.256Z,99814.59
2022-09-29T02:41:07.982Z,99812.38
2022-09-29T02:44:02.944Z,99810.97
2022-09-29T02:46:49.983Z,99810.69
2022-09-29T02:49:19.853Z,99815.38
2022-09-29T02:51:56.876Z,99827.16
2022-09-29T02:54:46.763Z,99812.72
2022-09-29T02:57:14.048Z,99813.19
2022-09-29T02:59:56.870Z,99809.94
2022-09-29T03:02:28.177Z,99816.94
2022-09-29T03:04:55.113Z,99814.03
2022-09-29T03:07:22.395Z,99810.69
2022-09-29T03:09:49.860Z,99811.13
2022-09-29T03:12:18.245Z,99806.41
2022-09-29T03:14:45.145Z,99803.81
2022-09-29T03:17:12.397Z,99809.78
2022-09-29T03:19:39.291Z,99813.50
2022-09-29T03:22:06.204Z,99811.47
2022-09-29T03:24:33.239Z,99806.69
2022-09-29T03:27:00.584Z,99800.22
2022-09-29T03:29:27.712Z,99800.63
2022-09-29T03:31:54.733Z,99803.16
2022-09-29T03:34:21.735Z,99800.47
2022-09-29T03:36:48.654Z,99800.59
2022-09-29T03:39:15.551Z,99794.44
2022-09-29T03:41:42.672Z,99798.84
2022-09-29T03:44:09.572Z,99804.63
2022-09-29T03:46:36.447Z,99793.41
2022-09-29T03:49:03.399Z,99796.22
2022-09-29T03:51:30.382Z,99799.09
2022-09-29T03:53:57.297Z,99811.25
2022-09-29T03:56:24.215Z,99813.22
2022-09-29T03:58:51.158Z,99812.22
2022-09-29T04:01:18.142Z,99814.72
2022-09-29T04:03:45.200Z,99810.44
2022-09-29T04:06:12.240Z,99810.28
2022-09-29T04:08:39.482Z,99818.91
2022-09-29T04:11:06.583Z,99816.69
2022-09-29T04:13:33.599Z,99803.91
2022-09-29T04:16:03.180Z,99821.16
2022-09-29T04:18:31.597Z,99818.63
2022-09-29T04:21:02.586Z,99815.47
2022-09-29T04:23:30.553Z,99814.53
2022-09-29T04:26:04.585Z,99820.16
2022-09-29T04:28:33.227Z,99819.63
2022-09-29T04:31:00.421Z,99829.97
2022-09-29T04:33:28.054Z,99830.25
2022-09-29T04:35:54.936Z,99834.75
2022-09-29T04:38:22.358Z,99835.91
2022-09-29T04:40:50.024Z,99834.63
2022-09-29T04:43:17.430Z,99838.31
2022-09-29T04:45:44.493Z,99844.06
2022-09-29T04:48:11.479Z,99841.16
2022-09-29T04:50:38.582Z,99843.19
2022-09-29T04:53:05.478Z,99844.72
2022-09-29T04:55:32.377Z,99843.09
2022-09-29T04:57:59.328Z,99845.16
2022-09-29T05:00:26.211Z,99843.75
2022-09-29T05:02:53.250Z,99845.38
2022-09-29T05:05:20.216Z,99849.53
2022-09-29T05:07:48.194Z,99850.13
2022-09-29T05:10:15.211Z,99852.97
2022-09-29T05:12:47.691Z,99849.19
2022-09-29T05:15:14.829Z,99848.75
2022-09-29T05:17:41.721Z,99850.97
2022-09-29T05:20:09.745Z,99851.41
2022-09-29T05:22:36.701Z,99863.19
2022-09-29T05:25:03.924Z,99864.06
2022-09-29T05:27:30.896Z,99862.88
2022-09-29T05:29:57.765Z,99862.34
2022-09-29T05:32:24.648Z,99863.88
2022-09-29T05:34:51.590Z,99865.22
2022-09-29T05:37:18.486Z,99862.03
2022-09-29T05:39:46.679Z,99869.31
2022-09-29T05:42:13.882Z,99871.94
2022-09-29T05:44:40.794Z,99866.09
2022-09-29T05:47:07.771Z,99869.31
2022-09-29T05:49:36.495Z,99876.50
2022-09-29T05:52:03.500Z,99876.34
2022-09-29T05:54:30.382Z,99873.59
2022-09-29T05:56:57.389Z,99878.97
2022-09-29T05:59:24.338Z,99875.72
2022-09-29T06:01:51.535Z,99879.53
2022-09-29T06:04:18.660Z,99877.91
2022-09-29T06:06:46.391Z,99869.16
2022-09-29T06:09:13.308Z,99887.94
2022-09-29T06:11:40.411Z,99893.38
2022-09-29T06:14:07.291Z,99889.19
2022-09-29T06:16:34.685Z,99895.47
2022-09-29T06:19:03.917Z,99898.78
2022-09-29T06:21:31.928Z,99896.22
2022-09-29T06:23:59.154Z,99894.84
2022-09-29T06:26:27.925Z,99899.09
2022-09-29T06:28:56.121Z,99893.06
2022-09-29T06:31:27.031Z,99901.44
2022-09-29T06:33:57.400Z,99908.63
2022-09-29T06:36:50.860Z,99901.34
2022-09-29T06:39:18.123Z,99911.75
2022-09-29T06:41:52.104Z,99912.91
2022-09-29T06:44:20.259Z,99926.28
2022-09-29T06:46:47.742Z,99917.84
2022-09-29T06:49:18.175Z,99926.78
2022-09-29T06:51:46.508Z,99937.22
2022-09-29T06:54:16.220Z,99936.69
2022-09-29T06:56:43.420Z,99934.09
2022-09-29T06:59:10.392Z,99928.03
2022-09-29T07:01:37.315Z,99937.34
2022-09-29T07:04:04.334Z,99934.66
2022-09-29T07:06:31.468Z,99932.84
2022-09-29T07:08:59.554Z,99937.25
2022-09-29T07:11:29.044Z,99936.16
2022-09-29T07:13:56.061Z,99933.03
2022-09-29T07:16:26.413Z,99944.59
2022-09-29T07:18:53.817Z,99947.31
2022-09-29T07:21:22.222Z,99947.84
2022-09-29T07:23:50.029Z,99950.94
2022-09-29T07:26:17.966Z,99948.13
2022-09-29T07:28:46.990Z,99945.88
2022-09-29T07:31:19.250Z,99946.94
2022-09-29T07:33:48.826Z,99946.59
2022-09-29T07:36:19.330Z,99945.28
2022-09-29T07:38:51.266Z,99949.31
2022-09-29T07:41:20.987Z,99952.78
2022-09-29T07:43:48.481Z,99950.66
2022-09-29T07:46:15.798Z,99947.38
2022-09-29T07:48:43.370Z,99939.63
2022-09-29T07:51:19.396Z,99955.06
2022-09-29T07:53:47.163Z,99955.75
2022-09-29T07:56:23.018Z,99956.09
2022-09-29T07:58:50.992Z,99942.06
2022-09-29T08:01:20.112Z,99947.94
2022-09-29T08:03:54.420Z,99951.03
2022-09-29T08:06:23.618Z,99958.34
2022-09-29T08:09:02.192Z,99956.19
2022-09-29T08:11:34.463Z,99958.59
2022-09-29T08:14:02.076Z,99955.53
2022-09-29T08:16:29.492Z,99964.81
2022-09-29T08:18:56.508Z,99960.94
2022-09-29T08:21:23.441Z,99961.25
2022-09-29T08:23:50.376Z,99969.78
2022-09-29T08:26:34.683Z,99967.94
2022-09-29T08:29:08.805Z,99963.28
2022-09-29T08:31:38.183Z,99967.31
2022-09-29T08:34:06.581Z,99972.22
2022-09-29T08:36:33.518Z,99975.84
2022-09-29T08:39:00.651Z,99975.19
2022-09-29T08:41:53.668Z,99971.53
2022-09-29T08:44:48.021Z,99975.69
2022-09-29T08:47:48.476Z,99976.59
2022-09-29T08:50:31.701Z,99980.31
2022-09-29T08:53:28.095Z,99979.38
2022-09-29T08:56:04.079Z,99992.69
2022-09-29T08:58:33.020Z,99992.78
2022-09-29T09:01:14.774Z,99999.31
2022-09-29T09:04:22.063Z,100010.00
2022-09-29T09:07:21.681Z,100000.91
2022-09-29T09:10:04.285Z,100009.13
2022-09-29T09:13:00.194Z,100017.34
2022-09-29T09:15:54.677Z,100010.31
2022-09-29T09:19:01.478Z,100015.56
2022-09-29T09:21:54.067Z,100005.38
2022-09-29T09:25:04.379Z,100005.56
2022-09-29T09:27:38.046Z,100006.00
2022-09-29T09:30:13.315Z,100010.22
2022-09-29T09:32:54.976Z,100017.69
2022-09-29T09:35:57.620Z,100015.56
2022-09-29T09:38:38.407Z,100025.50
2022-09-29T09:41:05.825Z,100022.34
2022-09-29T09:43:46.788Z,100025.44
2022-09-29T09:46:32.295Z,100022.53
2022-09-29T09:49:19.952Z,100023.69
2022-09-29T09:54:46.320Z,100019.84
2022-09-29T09:57:58.622Z,100015.19
2022-09-29T10:00:45.282Z,100019.31
2022-09-29T10:03:14.387Z,100026.56
2022-09-29T10:05:45.687Z,100027.47
2022-09-29T10:08:27.329Z,100029.50
2022-09-29T10:10:59.040Z,100030.06
2022-09-29T10:13:31.613Z,100032.25
2022-09-29T10:16:16.825Z,100034.44
2022-09-29T10:18:52.780Z,100038.56
2022-09-29T10:21:31.085Z,100031.91
2022-09-29T10:24:00.835Z,100031.03
2022-09-29T10:26:34.924Z,100030.63
2022-09-29T10:29:18.621Z,100031.41
2022-09-29T10:32:39.086Z,100032.03
2022-09-29T10:35:17.503Z,100043.00
2022-09-29T10:37:48.621Z,100041.50
2022-09-29T10:40:21.446Z,100041.75
2022-09-29T10:42:51.186Z,100044.97
2022-09-29T10:45:29.939Z,100045.31
2022-09-29T10:48:00.504Z,100044.22
2022-09-29T10:50:37.441Z,100036.06
2022-09-29T10:53:20.002Z,100045.66
2022-09-29T10:55:54.875Z,100044.88
2022-09-29T10:58:45.608Z,100045.75
2022-09-29T11:01:24.130Z,100055.63
2022-09-29T11:04:04.873Z,100045.28
2022-09-29T11:06:43.794Z,100056.81
2022-09-29T11:09:15.746Z,100052.22
2022-09-29T11:11:49.245Z,100060.34
2022-09-29T11:14:42.479Z,100055.75
2022-09-29T11:17:32.276Z,100066.81
2022-09-29T11:20:03.996Z,100063.19
2022-09-29T11:22:49.392Z,100063.47
2022-09-29T11:25:53.803Z,100063.25
2022-09-29T11:28:48.442Z,100065.16
2022-09-29T11:31:48.663Z,100073.53
2022-09-29T11:34:58.546Z,100060.50
2022-09-29T11:37:56.105Z,100074.09
2022-09-29T11:41:25.496Z,100079.50
2022-09-29T11:43:56.573Z,100075.84
2022-09-29T11:46:32.932Z,100074.69
2022-09-29T11:49:40.672Z,100073.41
2022-09-29T11:52:48.292Z,100078.13
2022-09-29T11:55:45.298Z,100081.78
2022-09-29T11:59:05.552Z,100088.59
2022-09-29T12:01:49.958Z,100093.84
2022-09-29T12:04:44.767Z,100101.84
2022-09-29T12:07:45.578Z,100107.41
2022-09-29T12:10:45.065Z,100112.75
2022-09-29T12:13:37.585Z,100116.00
2022-09-29T12:16:15.372Z,100128.41
2022-09-29T12:18:54.623Z,100129.41
2022-09-29T12:21:34.093Z,100126.06
2022-09-29T12:24:06.185Z,100134.34
2022-09-29T12:26:34.615Z,100131.28
2022-09-29T12:29:48.660Z,100140.44
2022-09-29T12:32:25.558Z,100145.78
2022-09-29T12:35:02.700Z,100142.09
2022-09-29T12:38:27.692Z,100143.78
2022-09-29T12:41:22.050Z,100146.03
2022-09-29T12:43:49.362Z,100145.19
2022-09-29T12:47:05.653Z,100147.59
2022-09-29T12:50:06.850Z,100146.78
2022-09-29T12:53:08.417Z,100153.56
2022-09-29T12:56:10.796Z,100158.66
2022-09-29T12:58:45.749Z,100160.75
2022-09-29T13:01:36.411Z,100164.97
2022-09-29T13:04:50.558Z,100165.25
2022-09-29T13:07:38.667Z,100167.25
2022-09-29T13:10:55.765Z,100163.47
2022-09-29T13:13:44.892Z,100157.16
2022-09-29T13:16:33.142Z,100170.03
2022-09-29T13:19:55.560Z,100172.88
2022-09-29T13:22:51.093Z,100177.16
2022-09-29T13:26:05.454Z,100175.94
2022-09-29T13:28:38.955Z,100192.38
2022-09-29T13:31:12.045Z,100188.28
2022-09-29T13:33:40.087Z,100195.25
2022-09-29T13:36:09.146Z,100194.78
2022-09-29T13:38:39.231Z,100201.34
2022-09-29T13:41:40.494Z,100204.91
2022-09-29T13:44:23.742Z,100202.72
2022-09-29T13:46:52.620Z,100181.56
2022-09-29T13:49:22.572Z,100199.09
2022-09-29T13:52:03.833Z,100196.38
2022-09-29T13:54:42.829Z,100199.84
2022-09-29T13:57:12.472Z,100190.75
2022-09-29T14:00:18.073Z,100196.97
2022-09-29T14:02:52.247Z,100203.34
2022-09-29T14:05:25.188Z,100197.97
2022-09-29T14:07:57.827Z,100197.78
2022-09-29T14:10:36.586Z,100190.97
2022-09-29T14:13:13.141Z,100200.09
2022-09-29T14:15:56.639Z,100194.34
2022-09-29T14:18:45.054Z,100199.72
2022-09-29T14:21:53.925Z,100194.41
2022-09-29T14:24:42.173Z,100202.94
2022-09-29T14:27:35.392Z,100209.00
2022-09-29T14:30:33.075Z,100211.16
2022-09-29T14:33:04.965Z,100202.84
2022-09-29T14:35:41.793Z,100198.00
2022-09-29T14:38:17.594Z,100205.03
2022-09-29T14:41:26.524Z,100198.94
2022-09-29T14:44:00.007Z,100197.78
2022-09-29T14:47:41.627Z,100203.88
2022-09-29T14:50:36.368Z,100201.16
2022-09-29T14:53:49.363Z,100206.38
2022-09-29T14:57:12.028Z,100209.75
2022-09-29T15:00:02.222Z,100208.03
2022-09-29T15:02:32.128Z,100213.81
2022-09-29T15:04:59.107Z,100216.00
2022-09-29T15:07:28.411Z,100214.72
2022-09-29T15:09:58.400Z,100211.31
2022-09-29T15:12:31.820Z,100218.59
2022-09-29T15:15:00.287Z,100228.94
2022-09-29T15:18:20.267Z,100231.44
2022-09-29T15:21:05.487Z,100224.94
2022-09-29T15:24:09.465Z,100228.38
2022-09-29T15:26:37.314Z,100231.03
2022-09-29T15:29:07.778Z,100234.22
2022-09-29T15:31:35.916Z,100241.25
2022-09-29T15:34:06.999Z,100236.94
2022-09-29T15:36:40.033Z,100244.25
2022-09-29T15:39:31.994Z,100245.28
2022-09-29T15:42:14.912Z,100248.31
2022-09-29T15:45:23.003Z,100249.53
2022-09-29T15:48:04.923Z,100255.66
2022-09-29T15:50:36.077Z,100253.34
2022-09-29T15:53:03.993Z,100249.78
2022-09-29T15:55:32.612Z,100258.31
2022-09-29T15:58:02.219Z,100253.00
2022-09-29T16:00:38.453Z,100258.69
2022-09-29T16:03:27.276Z,100268.88
2022-09-29T16:06:23.587Z,100275.81
2022-09-29T16:08:55.939Z,100282.72
2022-09-29T16:11:27.881Z,100281.50
2022-09-29T16:14:02.789Z,100287.81
2022-09-29T16:16:41.762Z,100292.88
2022-09-29T16:19:32.796Z,100286.06
2022-09-29T16:22:03.757Z,100293.69
2022-09-29T16:24:35.067Z,100298.91
2022-09-29T16:27:02.751Z,100306.44
2022-09-29T16:29:36.493Z,100311.03
2022-09-29T16:32:38.361Z,100317.22
2022-09-29T16:35:42.457Z,100322.94
2022-09-29T16:38:36.006Z,100334.53
2022-09-29T16:41:37.843Z,100327.16
2022-09-29T16:44:17.944Z,100333.31
2022-09-29T16:47:03.312Z,100331.88
2022-09-29T16:49:36.685Z,100337.13
2022-09-29T16:52:23.572Z,100339.00
2022-09-29T16:54:52.411Z,100336.50
2022-09-29T16:57:56.583Z,100334.53
2022-09-29T17:00:23.804Z,100352.66
2022-09-29T17:02:55.834Z,100342.31
2022-09-29T17:05:25.169Z,100350.22
2022-09-29T17:08:01.743Z,100351.06
2022-09-29T17:10:29.488Z,100354.28
2022-09-29T17:12:56.476Z,100352.56
2022-09-29T17:15:24.862Z,100357.72
2022-09-29T17:17:52.489Z,100358.00
2022-09-29T17:20:30.284Z,100359.25
2022-09-29T17:22:59.940Z,100359.78
2022-09-29T17:25:27.296Z,100363.50
2022-09-29T17:28:12.491Z,100365.09
2022-09-29T17:30:42.125Z,100361.34
2022-09-29T17:33:15.795Z,100375.84
2022-09-29T17:35:53.019Z,100379.78
2022-09-29T17:38:22.221Z,100377.97
2022-09-29T17:41:02.699Z,100382.84
2022-09-29T17:43:33.862Z,100382.84
2022-09-29T17:46:01.556Z,100384.13
2022-09-29T17:48:30.631Z,100389.84
2022-09-29T17:50:59.549Z,100393.13
2022-09-29T17:53:27.081Z,100398.03
2022-09-29T17:55:57.547Z,100398.38
2022-09-29T17:58:25.108Z,100402.25
2022-09-29T18:00:55.007Z,100402.16
2022-09-29T18:03:23.067Z,100419.78
2022-09-29T18:05:59.955Z,100422.88
2022-09-29T18:08:29.414Z,100423.69
2022-09-29T18:11:02.482Z,100433.13
2022-09-29T18:13:31.988Z,100434.03
2022-09-29T18:16:00.660Z,100439.84
2022-09-29T18:18:28.175Z,100439.19
2022-09-29T18:20:55.283Z,100443.69
2022-09-29T18:23:24.191Z,100444.28
2022-09-29T18:25:52.982Z,100445.59
2022-09-29T18:28:20.543Z,100449.88
2022-09-29T18:30:52.494Z,100448.94
2022-09-29T18:33:21.096Z,100449.22
2022-09-29T18:35:55.217Z,100453.78
2022-09-29T18:38:22.769Z,100456.25
2022-09-29T18:40:56.530Z,100464.31
2022-09-29T18:43:26.107Z,100460.97
2022-09-29T18:45:58.177Z,100473.03
2022-09-29T18:48:25.331Z,100467.88
2022-09-29T18:50:56.765Z,100475.09
2022-09-29T18:53:24.253Z,100475.41
2022-09-29T18:55:58.188Z,100476.75
2022-09-29T18:58:25.181Z,100478.84
2022-09-29T19:00:57.413Z,100477.84
2022-09-29T19:03:27.259Z,100485.34
2022-09-29T19:05:57.798Z,100484.22
2022-09-29T19:08:25.211Z,100483.31
2022-09-29T19:11:00.996Z,100492.00
2022-09-29T19:13:31.218Z,100492.09
2022-09-29T19:15:59.519Z,100494.66
2022-09-29T19:18:27.204Z,100494.03
2022-09-29T19:20:58.472Z,100497.91
2022-09-29T19:23:27.539Z,100491.34
2022-09-29T19:25:58.607Z,100501.06
2022-09-29T19:28:27.423Z,100498.28
2022-09-29T19:30:55.991Z,100503.91
2022-09-29T19:33:23.628Z,100504.59
2022-09-29T19:35:57.364Z,100512.13
2022-09-29T19:38:24.298Z,100512.06
2022-09-29T19:40:51.766Z,100513.41
2022-09-29T19:43:21.557Z,100525.06
2022-09-29T19:45:50.094Z,100534.72
2022-09-29T19:48:21.206Z,100535.53
2022-09-29T19:51:14.572Z,100543.44
2022-09-29T19:53:44.529Z,100547.19
2022-09-29T19:56:14.777Z,100555.88
2022-09-29T19:58:42.465Z,100559.63
2022-09-29T20:01:13.882Z,100555.88
2022-09-29T20:03:43.421Z,100554.91
2022-09-29T20:06:10.495Z,100562.75
2022-09-29T20:08:37.487Z,100556.56
2022-09-29T20:11:12.690Z,100563.41
2022-09-29T20:13:41.289Z,100563.25
2022-09-29T20:16:08.446Z,100567.88
2022-09-29T20:18:37.902Z,100574.25
2022-09-29T20:21:10.778Z,100581.09
2022-09-29T20:23:39.290Z,100579.19
2022-09-29T20:26:10.174Z,100583.75
2022-09-29T20:28:38.873Z,100577.16
2022-09-29T20:31:07.663Z,100579.28
2022-09-29T20:33:36.371Z,100586.31
2022-09-29T20:36:05.126Z,100589.78
2022-09-29T20:38:35.893Z,100595.19
2022-09-29T20:41:04.060Z,100601.09
2022-09-29T20:43:34.564Z,100599.16
2022-09-29T20:46:05.604Z,100607.22
2022-09-29T20:48:34.586Z,100600.13
2022-09-29T20:51:04.131Z,100594.16
2022-09-29T20:53:34.114Z,100597.91
2022-09-29T20:56:16.267Z,100598.00
2022-09-29T20:58:45.194Z,100600.97
2022-09-29T21:01:23.294Z,100615.78
2022-09-29T21:03:59.308Z,100612.41
2022-09-29T21:06:29.770Z,100615.72
2022-09-29T21:08:58.905Z,100619.31
2022-09-29T21:11:26.737Z,100624.59
2022-09-29T21:13:58.470Z,100627.69
2022-09-29T21:16:26.048Z,100611.28
2022-09-29T21:18:55.131Z,100629.09
2022-09-29T21:21:22.523Z,100624.53
2022-09-29T21:23:50.774Z,100610.03
2022-09-29T21:26:20.722Z,100624.41
2022-09-29T21:28:54.292Z,100614.03
2022-09-29T21:31:24.720Z,100631.72
2022-09-29T21:33:59.936Z,100627.84
2022-09-29T21:36:29.618Z,100637.78
2022-09-29T21:39:02.845Z,100635.66
2022-09-29T21:41:41.259Z,100639.09
2022-09-29T21:44:15.638Z,100644.66
2022-09-29T21:46:44.071Z,100649.44
2022-09-29T21:49:13.468Z,100653.19
2022-09-29T21:51:49.673Z,100645.41
2022-09-29T21:54:23.294Z,100649.03
2022-09-29T21:56:51.926Z,100655.34
2022-09-29T21:59:20.793Z,100650.75
2022-09-29T22:01:49.090Z,100649.13
2022-09-29T22:04:16.333Z,100653.81
2022-09-29T22:06:45.009Z,100662.94
2022-09-29T22:09:19.017Z,100650.03
2022-09-29T22:11:47.285Z,100656.81
2022-09-29T22:14:16.133Z,100664.56
2022-09-29T22:16:43.427Z,100664.13
2022-09-29T22:19:22.971Z,100659.50
2022-09-29T22:21:51.546Z,100660.78
2022-09-29T22:24:18.502Z,100658.16
2022-09-29T22:26:45.434Z,100667.66
2022-09-29T22:29:13.408Z,100678.19
2022-09-29T22:31:40.871Z,100672.28
2022-09-29T22:34:08.212Z,100676.31
2022-09-29T22:36:36.008Z,100675.13
2022-09-29T22:39:05.661Z,100679.69
2022-09-29T22:41:33.234Z,100663.91
2022-09-29T22:44:00.944Z,100674.47
2022-09-29T22:46:30.430Z,100671.63
2022-09-29T22:48:58.440Z,100670.50
2022-09-29T22:51:25.487Z,100671.78
2022-09-29T22:53:52.460Z,100666.00
2022-09-29T22:56:28.272Z,100681.16
2022-09-29T22:59:01.043Z,100676.16
2022-09-29T23:01:28.432Z,100671.56
2022-09-29T23:03:55.442Z,100665.00
2022-09-29T23:06:22.440Z,100670.94
2022-09-29T23:08:49.337Z,100663.91
2022-09-29T23:11:19.488Z,100668.19
2022-09-29T23:13:47.199Z,100669.44
2022-09-29T23:16:16.700Z,100671.53
2022-09-29T23:18:46.097Z,100672.13
2022-09-29T23:21:19.532Z,100673.13
2022-09-29T23:23:52.295Z,100679.75
2022-09-29T23:26:19.200Z,100682.94
2022-09-29T23:28:46.154Z,100679.34
2022-09-29T23:31:13.806Z,100694.84
2022-09-29T23:33:41.111Z,100695.91
2022-09-29T23:36:15.225Z,100698.13
2022-09-29T23:39:03.013Z,100692.91
2022-09-29T23:41:31.190Z,100690.44
2022-09-29T23:44:05.320Z,100685.13
2022-09-29T23:46:35.991Z,100691.25
2022-09-29T23:49:09.118Z,100692.00
2022-09-29T23:51:40.497Z,100695.81
2022-09-29T23:54:09.386Z,100691.78
2022-09-29T23:56:36.335Z,100692.41
2022-09-29T23:59:04.308Z,100696.50
